Sariyer, Turkey
Current Conditions -  °F | °C
As of 8:20 PM on Friday 24 Oct 2014 (Local Time) from LTBA Reporting Station
Broken Clouds Broken Clouds  
Wind Chill: 64°   Ceiling: 9000
Heat Index: 64°   Visibility: 6mi
Dew Point: 59°   Wind: 14mph
Humidity: 83%   Direction: 30°NNE
Pressure: 29.88"   Gusts: NA
Location:  41.17°N, 29.05°E
Report Text: LTBA 241720Z 03012KT 9999 SCT023 BKN090 18/15 Q1012 NOSIG
Loading
Personal Weather Stations






























Interactive Weather Map
Tropical Storm Tracking
New forecast layout! Learn more

10-Day Weather Forecast

Advertisements
Track Severe Weather on mobile